sensor_id;sensor_type;location;lat;lon;timestamp;P1;durP1;ratioP1;P2;durP2;ratioP2
18931;SDS011;9598;50.954;3.112;2023-03-21T00:04:26;10.00;;;7.85;;
18931;SDS011;9598;50.954;3.112;2023-03-21T00:09:30;10.23;;;8.07;;
18931;SDS011;9598;50.954;3.112;2023-03-21T00:14:32;11.88;;;8.35;;
18931;SDS011;9598;50.954;3.112;2023-03-21T00:19:34;10.07;;;8.20;;
18931;SDS011;9598;50.954;3.112;2023-03-21T00:24:39;12.65;;;8.98;;
18931;SDS011;9598;50.954;3.112;2023-03-21T00:29:41;10.10;;;7.90;;
18931;SDS011;9598;50.954;3.112;2023-03-21T00:34:43;13.20;;;8.75;;
18931;SDS011;9598;50.954;3.112;2023-03-21T00:39:47;10.85;;;8.40;;
18931;SDS011;9598;50.954;3.112;2023-03-21T00:44:49;10.48;;;8.45;;
18931;SDS011;9598;50.954;3.112;2023-03-21T00:49:51;9.30;;;8.05;;
18931;SDS011;9598;50.954;3.112;2023-03-21T00:54:56;11.82;;;8.57;;
18931;SDS011;9598;50.954;3.112;2023-03-21T00:59:58;13.20;;;9.20;;
18931;SDS011;9598;50.954;3.112;2023-03-21T01:05:01;11.82;;;8.70;;
18931;SDS011;9598;50.954;3.112;2023-03-21T01:10:06;12.52;;;8.70;;
18931;SDS011;9598;50.954;3.112;2023-03-21T01:15:09;12.65;;;8.88;;
18931;SDS011;9598;50.954;3.112;2023-03-21T01:20:11;13.30;;;9.45;;
18931;SDS011;9598;50.954;3.112;2023-03-21T01:25:15;12.88;;;8.57;;
18931;SDS011;9598;50.954;3.112;2023-03-21T01:30:17;14.63;;;10.27;;
18931;SDS011;9598;50.954;3.112;2023-03-21T01:35:20;18.00;;;10.38;;
18931;SDS011;9598;50.954;3.112;2023-03-21T01:40:24;12.38;;;9.63;;
18931;SDS011;9598;50.954;3.112;2023-03-21T01:51:29;14.98;;;9.50;;
18931;SDS011;9598;50.954;3.112;2023-03-21T01:56:36;10.70;;;9.15;;
18931;SDS011;9598;50.954;3.112;2023-03-21T02:01:42;12.20;;;9.70;;
18931;SDS011;9598;50.954;3.112;2023-03-21T02:06:48;13.07;;;8.95;;
18931;SDS011;9598;50.954;3.112;2023-03-21T02:12:07;13.90;;;8.93;;
18931;SDS011;9598;50.954;3.112;2023-03-21T02:17:12;12.35;;;9.35;;
18931;SDS011;9598;50.954;3.112;2023-03-21T02:28:01;12.15;;;8.68;;
18931;SDS011;9598;50.954;3.112;2023-03-21T02:33:18;11.40;;;7.43;;
18931;SDS011;9598;50.954;3.112;2023-03-21T02:38:36;11.70;;;7.65;;
18931;SDS011;9598;50.954;3.112;2023-03-21T02:43:43;12.70;;;8.05;;
18931;SDS011;9598;50.954;3.112;2023-03-21T02:48:50;14.68;;;8.02;;
18931;SDS011;9598;50.954;3.112;2023-03-21T02:54:04;9.25;;;7.35;;
18931;SDS011;9598;50.954;3.112;2023-03-21T02:59:10;13.55;;;8.07;;
18931;SDS011;9598;50.954;3.112;2023-03-21T03:04:17;13.57;;;7.72;;
18931;SDS011;9598;50.954;3.112;2023-03-21T03:09:25;10.18;;;7.38;;
18931;SDS011;9598;50.954;3.112;2023-03-21T03:14:38;10.38;;;7.40;;
18931;SDS011;9598;50.954;3.112;2023-03-21T03:19:53;10.70;;;7.20;;
18931;SDS011;9598;50.954;3.112;2023-03-21T03:25:12;9.35;;;6.85;;
18931;SDS011;9598;50.954;3.112;2023-03-21T03:30:20;13.05;;;7.35;;
18931;SDS011;9598;50.954;3.112;2023-03-21T03:35:25;9.50;;;6.28;;
18931;SDS011;9598;50.954;3.112;2023-03-21T03:40:29;11.38;;;6.60;;
18931;SDS011;9598;50.954;3.112;2023-03-21T03:45:46;10.30;;;6.43;;
18931;SDS011;9598;50.954;3.112;2023-03-21T03:50:53;9.07;;;6.72;;
18931;SDS011;9598;50.954;3.112;2023-03-21T03:56:14;8.98;;;6.80;;
18931;SDS011;9598;50.954;3.112;2023-03-21T04:01:16;11.43;;;6.50;;
18931;SDS011;9598;50.954;3.112;2023-03-21T04:06:18;11.38;;;6.50;;
18931;SDS011;9598;50.954;3.112;2023-03-21T04:11:24;10.95;;;6.78;;
18931;SDS011;9598;50.954;3.112;2023-03-21T04:16:28;10.95;;;6.65;;
18931;SDS011;9598;50.954;3.112;2023-03-21T04:21:31;10.32;;;6.35;;
18931;SDS011;9598;50.954;3.112;2023-03-21T04:26:36;9.32;;;6.05;;
18931;SDS011;9598;50.954;3.112;2023-03-21T04:32:16;8.27;;;5.68;;
18931;SDS011;9598;50.954;3.112;2023-03-21T04:37:31;8.95;;;5.80;;
18931;SDS011;9598;50.954;3.112;2023-03-21T04:42:36;7.80;;;5.93;;
18931;SDS011;9598;50.954;3.112;2023-03-21T04:47:38;12.93;;;7.20;;
18931;SDS011;9598;50.954;3.112;2023-03-21T04:52:41;8.75;;;6.47;;
18931;SDS011;9598;50.954;3.112;2023-03-21T04:57:44;9.50;;;6.53;;
18931;SDS011;9598;50.954;3.112;2023-03-21T05:02:47;10.25;;;6.72;;
18931;SDS011;9598;50.954;3.112;2023-03-21T05:07:49;11.32;;;6.80;;
18931;SDS011;9598;50.954;3.112;2023-03-21T05:12:53;10.02;;;7.47;;
18931;SDS011;9598;50.954;3.112;2023-03-21T05:17:55;12.05;;;7.57;;
18931;SDS011;9598;50.954;3.112;2023-03-21T05:22:58;9.90;;;7.40;;
18931;SDS011;9598;50.954;3.112;2023-03-21T05:28:03;12.15;;;7.78;;
18931;SDS011;9598;50.954;3.112;2023-03-21T05:33:06;12.30;;;8.20;;
18931;SDS011;9598;50.954;3.112;2023-03-21T05:38:08;13.55;;;8.43;;
18931;SDS011;9598;50.954;3.112;2023-03-21T05:43:22;15.05;;;8.98;;
18931;SDS011;9598;50.954;3.112;2023-03-21T05:48:25;12.88;;;9.02;;
18931;SDS011;9598;50.954;3.112;2023-03-21T05:53:41;17.02;;;9.82;;
18931;SDS011;9598;50.954;3.112;2023-03-21T05:58:44;14.30;;;9.13;;
18931;SDS011;9598;50.954;3.112;2023-03-21T06:03:47;16.10;;;10.57;;
18931;SDS011;9598;50.954;3.112;2023-03-21T06:08:51;16.58;;;11.00;;
18931;SDS011;9598;50.954;3.112;2023-03-21T06:13:54;19.98;;;10.90;;
18931;SDS011;9598;50.954;3.112;2023-03-21T06:18:57;19.42;;;10.93;;
18931;SDS011;9598;50.954;3.112;2023-03-21T06:24:28;16.88;;;10.98;;
18931;SDS011;9598;50.954;3.112;2023-03-21T06:29:32;14.60;;;10.95;;
18931;SDS011;9598;50.954;3.112;2023-03-21T06:34:35;15.18;;;10.90;;
18931;SDS011;9598;50.954;3.112;2023-03-21T06:39:37;14.50;;;10.82;;
18931;SDS011;9598;50.954;3.112;2023-03-21T06:44:41;18.42;;;12.35;;
18931;SDS011;9598;50.954;3.112;2023-03-21T06:49:47;16.50;;;11.68;;
18931;SDS011;9598;50.954;3.112;2023-03-21T06:54:49;16.75;;;10.93;;
18931;SDS011;9598;50.954;3.112;2023-03-21T06:59:53;14.48;;;10.75;;
18931;SDS011;9598;50.954;3.112;2023-03-21T07:04:57;17.17;;;11.23;;
18931;SDS011;9598;50.954;3.112;2023-03-21T07:10:02;12.57;;;11.20;;
18931;SDS011;9598;50.954;3.112;2023-03-21T07:15:14;19.02;;;12.10;;
18931;SDS011;9598;50.954;3.112;2023-03-21T07:20:19;12.80;;;10.25;;
18931;SDS011;9598;50.954;3.112;2023-03-21T07:25:21;14.82;;;10.57;;
18931;SDS011;9598;50.954;3.112;2023-03-21T07:30:24;15.35;;;10.68;;
18931;SDS011;9598;50.954;3.112;2023-03-21T07:35:27;14.63;;;9.82;;
18931;SDS011;9598;50.954;3.112;2023-03-21T07:40:29;16.48;;;11.10;;
18931;SDS011;9598;50.954;3.112;2023-03-21T07:45:33;18.33;;;10.73;;
18931;SDS011;9598;50.954;3.112;2023-03-21T07:50:35;15.32;;;10.38;;
18931;SDS011;9598;50.954;3.112;2023-03-21T07:55:37;15.35;;;10.18;;
18931;SDS011;9598;50.954;3.112;2023-03-21T08:00:40;15.07;;;10.18;;
18931;SDS011;9598;50.954;3.112;2023-03-21T08:05:42;12.13;;;8.95;;
18931;SDS011;9598;50.954;3.112;2023-03-21T08:10:45;12.77;;;9.90;;
18931;SDS011;9598;50.954;3.112;2023-03-21T08:15:48;15.15;;;9.73;;
18931;SDS011;9598;50.954;3.112;2023-03-21T08:20:51;15.18;;;9.40;;
18931;SDS011;9598;50.954;3.112;2023-03-21T08:25:54;14.27;;;9.00;;
18931;SDS011;9598;50.954;3.112;2023-03-21T08:30:58;15.80;;;9.75;;
18931;SDS011;9598;50.954;3.112;2023-03-21T08:36:01;12.32;;;9.27;;
18931;SDS011;9598;50.954;3.112;2023-03-21T08:41:04;14.02;;;9.38;;
18931;SDS011;9598;50.954;3.112;2023-03-21T08:46:08;11.45;;;8.30;;
18931;SDS011;9598;50.954;3.112;2023-03-21T08:51:10;11.57;;;8.88;;
18931;SDS011;9598;50.954;3.112;2023-03-21T08:56:13;12.63;;;8.07;;
18931;SDS011;9598;50.954;3.112;2023-03-21T09:01:16;11.95;;;8.23;;
18931;SDS011;9598;50.954;3.112;2023-03-21T09:06:18;11.95;;;6.90;;
18931;SDS011;9598;50.954;3.112;2023-03-21T09:11:20;11.98;;;8.10;;
18931;SDS011;9598;50.954;3.112;2023-03-21T09:16:24;10.40;;;7.20;;
18931;SDS011;9598;50.954;3.112;2023-03-21T09:21:26;13.98;;;7.72;;
18931;SDS011;9598;50.954;3.112;2023-03-21T09:26:29;13.05;;;8.73;;
18931;SDS011;9598;50.954;3.112;2023-03-21T09:31:33;13.27;;;7.78;;
18931;SDS011;9598;50.954;3.112;2023-03-21T09:36:35;9.60;;;7.30;;
18931;SDS011;9598;50.954;3.112;2023-03-21T09:47:08;12.30;;;7.10;;
18931;SDS011;9598;50.954;3.112;2023-03-21T09:52:20;10.23;;;6.43;;
18931;SDS011;9598;50.954;3.112;2023-03-21T09:57:28;8.57;;;5.93;;
18931;SDS011;9598;50.954;3.112;2023-03-21T10:02:35;9.25;;;6.03;;
18931;SDS011;9598;50.954;3.112;2023-03-21T10:07:40;10.27;;;6.20;;
18931;SDS011;9598;50.954;3.112;2023-03-21T10:12:47;8.35;;;5.63;;
18931;SDS011;9598;50.954;3.112;2023-03-21T10:17:57;9.80;;;4.80;;
18931;SDS011;9598;50.954;3.112;2023-03-21T10:23:03;8.23;;;5.07;;
18931;SDS011;9598;50.954;3.112;2023-03-21T10:28:07;9.40;;;5.57;;
18931;SDS011;9598;50.954;3.112;2023-03-21T10:33:19;8.27;;;4.78;;
18931;SDS011;9598;50.954;3.112;2023-03-21T10:38:25;8.50;;;4.82;;
18931;SDS011;9598;50.954;3.112;2023-03-21T10:43:32;9.60;;;4.85;;
18931;SDS011;9598;50.954;3.112;2023-03-21T10:48:39;8.63;;;5.40;;
18931;SDS011;9598;50.954;3.112;2023-03-21T10:53:45;13.13;;;6.95;;
18931;SDS011;9598;50.954;3.112;2023-03-21T10:58:52;8.05;;;5.10;;
18931;SDS011;9598;50.954;3.112;2023-03-21T11:04:00;8.10;;;5.63;;
18931;SDS011;9598;50.954;3.112;2023-03-21T11:09:08;9.02;;;5.25;;
18931;SDS011;9598;50.954;3.112;2023-03-21T11:14:23;9.65;;;4.55;;
18931;SDS011;9598;50.954;3.112;2023-03-21T11:19:29;5.43;;;4.93;;
18931;SDS011;9598;50.954;3.112;2023-03-21T11:24:33;9.70;;;5.63;;
18931;SDS011;9598;50.954;3.112;2023-03-21T11:29:37;8.30;;;4.90;;
18931;SDS011;9598;50.954;3.112;2023-03-21T11:34:45;6.40;;;4.75;;
18931;SDS011;9598;50.954;3.112;2023-03-21T11:39:53;8.68;;;4.80;;
18931;SDS011;9598;50.954;3.112;2023-03-21T11:44:58;8.88;;;6.03;;
18931;SDS011;9598;50.954;3.112;2023-03-21T11:50:08;6.68;;;5.10;;
18931;SDS011;9598;50.954;3.112;2023-03-21T11:55:22;5.78;;;5.18;;
18931;SDS011;9598;50.954;3.112;2023-03-21T12:00:32;5.97;;;5.18;;
18931;SDS011;9598;50.954;3.112;2023-03-21T12:05:41;6.28;;;4.28;;
18931;SDS011;9598;50.954;3.112;2023-03-21T12:10:52;5.65;;;4.78;;
18931;SDS011;9598;50.954;3.112;2023-03-21T12:16:01;5.88;;;4.30;;
18931;SDS011;9598;50.954;3.112;2023-03-21T12:21:11;8.20;;;4.43;;
18931;SDS011;9598;50.954;3.112;2023-03-21T12:26:21;4.85;;;3.40;;
18931;SDS011;9598;50.954;3.112;2023-03-21T12:31:27;4.35;;;2.85;;
18931;SDS011;9598;50.954;3.112;2023-03-21T12:36:41;3.50;;;3.00;;
18931;SDS011;9598;50.954;3.112;2023-03-21T12:42:01;2.78;;;2.58;;
18931;SDS011;9598;50.954;3.112;2023-03-21T12:47:25;2.75;;;2.55;;
18931;SDS011;9598;50.954;3.112;2023-03-21T12:52:31;2.35;;;2.15;;
18931;SDS011;9598;50.954;3.112;2023-03-21T12:57:39;2.40;;;2.20;;
18931;SDS011;9598;50.954;3.112;2023-03-21T13:02:48;2.75;;;2.00;;
18931;SDS011;9598;50.954;3.112;2023-03-21T13:07:57;3.53;;;2.78;;
18931;SDS011;9598;50.954;3.112;2023-03-21T13:13:05;2.45;;;2.28;;
18931;SDS011;9598;50.954;3.112;2023-03-21T13:18:15;3.90;;;2.70;;
18931;SDS011;9598;50.954;3.112;2023-03-21T13:23:33;5.30;;;3.00;;
18931;SDS011;9598;50.954;3.112;2023-03-21T13:28:37;5.03;;;2.70;;
18931;SDS011;9598;50.954;3.112;2023-03-21T13:33:41;2.95;;;2.40;;
18931;SDS011;9598;50.954;3.112;2023-03-21T13:38:49;4.28;;;2.80;;
18931;SDS011;9598;50.954;3.112;2023-03-21T13:43:54;4.95;;;2.80;;
18931;SDS011;9598;50.954;3.112;2023-03-21T13:49:13;3.90;;;2.00;;
18931;SDS011;9598;50.954;3.112;2023-03-21T13:54:29;3.85;;;2.13;;
18931;SDS011;9598;50.954;3.112;2023-03-21T13:59:48;2.65;;;1.85;;
18931;SDS011;9598;50.954;3.112;2023-03-21T14:05:20;3.00;;;2.70;;
18931;SDS011;9598;50.954;3.112;2023-03-21T14:10:27;2.95;;;2.50;;
18931;SDS011;9598;50.954;3.112;2023-03-21T14:15:37;2.70;;;2.10;;
18931;SDS011;9598;50.954;3.112;2023-03-21T14:20:41;4.90;;;2.40;;
18931;SDS011;9598;50.954;3.112;2023-03-21T14:25:43;4.22;;;2.25;;
18931;SDS011;9598;50.954;3.112;2023-03-21T14:30:50;3.08;;;2.83;;
18931;SDS011;9598;50.954;3.112;2023-03-21T14:35:55;3.72;;;2.63;;
18931;SDS011;9598;50.954;3.112;2023-03-21T14:40:59;3.85;;;2.35;;
18931;SDS011;9598;50.954;3.112;2023-03-21T14:46:03;4.05;;;1.85;;
18931;SDS011;9598;50.954;3.112;2023-03-21T14:51:06;4.55;;;1.67;;
18931;SDS011;9598;50.954;3.112;2023-03-21T14:56:15;3.58;;;1.83;;
18931;SDS011;9598;50.954;3.112;2023-03-21T15:01:26;2.97;;;2.03;;
18931;SDS011;9598;50.954;3.112;2023-03-21T15:06:31;6.55;;;2.17;;
18931;SDS011;9598;50.954;3.112;2023-03-21T15:11:35;3.55;;;2.25;;
18931;SDS011;9598;50.954;3.112;2023-03-21T15:16:39;3.65;;;2.05;;
18931;SDS011;9598;50.954;3.112;2023-03-21T15:21:43;2.95;;;2.53;;
18931;SDS011;9598;50.954;3.112;2023-03-21T15:26:48;3.55;;;2.40;;
18931;SDS011;9598;50.954;3.112;2023-03-21T15:31:53;5.00;;;2.30;;
18931;SDS011;9598;50.954;3.112;2023-03-21T15:36:56;2.80;;;2.40;;
18931;SDS011;9598;50.954;3.112;2023-03-21T15:42:02;3.10;;;2.30;;
18931;SDS011;9598;50.954;3.112;2023-03-21T15:47:09;3.08;;;2.40;;
18931;SDS011;9598;50.954;3.112;2023-03-21T15:52:14;2.53;;;2.30;;
18931;SDS011;9598;50.954;3.112;2023-03-21T15:57:19;3.65;;;2.50;;
18931;SDS011;9598;50.954;3.112;2023-03-21T16:02:27;4.97;;;2.60;;
18931;SDS011;9598;50.954;3.112;2023-03-21T16:07:32;4.55;;;2.70;;
18931;SDS011;9598;50.954;3.112;2023-03-21T16:12:34;6.00;;;2.30;;
18931;SDS011;9598;50.954;3.112;2023-03-21T16:17:38;3.25;;;1.50;;
18931;SDS011;9598;50.954;3.112;2023-03-21T16:22:41;5.15;;;1.92;;
18931;SDS011;9598;50.954;3.112;2023-03-21T16:27:43;3.17;;;2.08;;
18931;SDS011;9598;50.954;3.112;2023-03-21T16:32:47;3.20;;;1.67;;
18931;SDS011;9598;50.954;3.112;2023-03-21T16:37:50;3.13;;;1.60;;
18931;SDS011;9598;50.954;3.112;2023-03-21T16:42:52;3.20;;;1.55;;
18931;SDS011;9598;50.954;3.112;2023-03-21T16:47:56;2.72;;;1.60;;
18931;SDS011;9598;50.954;3.112;2023-03-21T16:52:59;3.75;;;1.63;;
18931;SDS011;9598;50.954;3.112;2023-03-21T16:58:02;4.05;;;1.38;;
18931;SDS011;9598;50.954;3.112;2023-03-21T17:03:11;3.00;;;1.60;;
18931;SDS011;9598;50.954;3.112;2023-03-21T17:08:18;3.03;;;1.27;;
18931;SDS011;9598;50.954;3.112;2023-03-21T17:13:21;3.97;;;1.58;;
18931;SDS011;9598;50.954;3.112;2023-03-21T17:18:25;3.13;;;1.38;;
18931;SDS011;9598;50.954;3.112;2023-03-21T17:23:27;4.05;;;1.42;;
18931;SDS011;9598;50.954;3.112;2023-03-21T17:28:29;5.25;;;2.00;;
18931;SDS011;9598;50.954;3.112;2023-03-21T17:33:32;7.10;;;1.85;;
18931;SDS011;9598;50.954;3.112;2023-03-21T17:38:35;9.60;;;1.95;;
18931;SDS011;9598;50.954;3.112;2023-03-21T17:43:37;4.95;;;1.88;;
18931;SDS011;9598;50.954;3.112;2023-03-21T17:48:41;6.28;;;1.98;;
18931;SDS011;9598;50.954;3.112;2023-03-21T17:53:45;9.30;;;2.30;;
18931;SDS011;9598;50.954;3.112;2023-03-21T17:58:49;7.63;;;2.22;;
18931;SDS011;9598;50.954;3.112;2023-03-21T18:03:53;9.50;;;2.08;;
18931;SDS011;9598;50.954;3.112;2023-03-21T18:08:55;6.53;;;2.40;;
18931;SDS011;9598;50.954;3.112;2023-03-21T18:13:57;6.78;;;2.65;;
18931;SDS011;9598;50.954;3.112;2023-03-21T18:19:01;6.40;;;3.42;;
18931;SDS011;9598;50.954;3.112;2023-03-21T18:24:04;9.13;;;3.47;;
18931;SDS011;9598;50.954;3.112;2023-03-21T18:29:06;7.45;;;2.88;;
18931;SDS011;9598;50.954;3.112;2023-03-21T18:34:11;7.80;;;2.65;;
18931;SDS011;9598;50.954;3.112;2023-03-21T18:39:14;7.25;;;2.75;;
18931;SDS011;9598;50.954;3.112;2023-03-21T18:44:16;9.30;;;3.05;;
18931;SDS011;9598;50.954;3.112;2023-03-21T18:49:20;9.63;;;2.88;;
18931;SDS011;9598;50.954;3.112;2023-03-21T18:54:22;8.30;;;2.78;;
18931;SDS011;9598;50.954;3.112;2023-03-21T18:59:25;3.35;;;2.08;;
18931;SDS011;9598;50.954;3.112;2023-03-21T19:04:28;8.52;;;3.10;;
18931;SDS011;9598;50.954;3.112;2023-03-21T19:09:31;9.48;;;3.15;;
18931;SDS011;9598;50.954;3.112;2023-03-21T19:14:33;10.30;;;3.28;;
18931;SDS011;9598;50.954;3.112;2023-03-21T19:19:37;12.45;;;3.70;;
18931;SDS011;9598;50.954;3.112;2023-03-21T19:24:40;7.55;;;3.05;;
18931;SDS011;9598;50.954;3.112;2023-03-21T19:29:43;5.78;;;2.95;;
18931;SDS011;9598;50.954;3.112;2023-03-21T19:34:47;8.63;;;3.35;;
18931;SDS011;9598;50.954;3.112;2023-03-21T19:39:49;7.63;;;2.95;;
18931;SDS011;9598;50.954;3.112;2023-03-21T19:44:51;9.90;;;3.08;;
18931;SDS011;9598;50.954;3.112;2023-03-21T19:49:54;8.98;;;3.15;;
18931;SDS011;9598;50.954;3.112;2023-03-21T19:54:56;7.70;;;3.00;;
18931;SDS011;9598;50.954;3.112;2023-03-21T19:59:59;7.20;;;3.08;;
18931;SDS011;9598;50.954;3.112;2023-03-21T20:05:03;8.73;;;2.95;;
18931;SDS011;9598;50.954;3.112;2023-03-21T20:10:07;11.65;;;3.20;;
18931;SDS011;9598;50.954;3.112;2023-03-21T20:15:10;12.40;;;5.30;;
18931;SDS011;9598;50.954;3.112;2023-03-21T20:20:15;7.47;;;3.08;;
18931;SDS011;9598;50.954;3.112;2023-03-21T20:25:18;8.45;;;3.78;;
18931;SDS011;9598;50.954;3.112;2023-03-21T20:30:21;6.82;;;3.42;;
18931;SDS011;9598;50.954;3.112;2023-03-21T20:35:24;13.60;;;3.92;;
18931;SDS011;9598;50.954;3.112;2023-03-21T20:40:26;12.73;;;4.30;;
18931;SDS011;9598;50.954;3.112;2023-03-21T20:45:29;9.13;;;3.45;;
18931;SDS011;9598;50.954;3.112;2023-03-21T20:50:33;9.40;;;4.20;;
18931;SDS011;9598;50.954;3.112;2023-03-21T20:55:36;9.93;;;4.15;;
18931;SDS011;9598;50.954;3.112;2023-03-21T21:00:38;11.98;;;4.32;;
18931;SDS011;9598;50.954;3.112;2023-03-21T21:05:43;9.90;;;4.45;;
18931;SDS011;9598;50.954;3.112;2023-03-21T21:10:47;9.10;;;4.28;;
18931;SDS011;9598;50.954;3.112;2023-03-21T21:15:49;11.27;;;5.03;;
18931;SDS011;9598;50.954;3.112;2023-03-21T21:20:54;11.27;;;4.57;;
18931;SDS011;9598;50.954;3.112;2023-03-21T21:25:57;10.90;;;4.65;;
18931;SDS011;9598;50.954;3.112;2023-03-21T21:31:05;7.60;;;4.43;;
18931;SDS011;9598;50.954;3.112;2023-03-21T21:36:11;11.43;;;4.53;;
18931;SDS011;9598;50.954;3.112;2023-03-21T21:41:14;13.23;;;4.47;;
18931;SDS011;9598;50.954;3.112;2023-03-21T21:46:19;12.60;;;5.13;;
18931;SDS011;9598;50.954;3.112;2023-03-21T21:51:23;12.98;;;4.05;;
18931;SDS011;9598;50.954;3.112;2023-03-21T21:56:26;7.72;;;3.63;;
18931;SDS011;9598;50.954;3.112;2023-03-21T22:01:31;11.18;;;4.18;;
18931;SDS011;9598;50.954;3.112;2023-03-21T22:06:35;8.15;;;3.30;;
18931;SDS011;9598;50.954;3.112;2023-03-21T22:11:37;11.18;;;3.80;;
18931;SDS011;9598;50.954;3.112;2023-03-21T22:16:40;8.32;;;3.55;;
18931;SDS011;9598;50.954;3.112;2023-03-21T22:21:44;8.30;;;3.97;;
18931;SDS011;9598;50.954;3.112;2023-03-21T22:26:46;11.13;;;4.03;;
18931;SDS011;9598;50.954;3.112;2023-03-21T22:31:48;8.02;;;3.88;;
18931;SDS011;9598;50.954;3.112;2023-03-21T22:36:52;7.57;;;4.00;;
18931;SDS011;9598;50.954;3.112;2023-03-21T22:41:56;6.13;;;3.15;;
18931;SDS011;9598;50.954;3.112;2023-03-21T22:47:02;7.93;;;3.83;;
18931;SDS011;9598;50.954;3.112;2023-03-21T22:52:07;6.82;;;3.30;;
18931;SDS011;9598;50.954;3.112;2023-03-21T22:57:11;11.35;;;4.38;;
18931;SDS011;9598;50.954;3.112;2023-03-21T23:02:13;10.27;;;4.13;;
18931;SDS011;9598;50.954;3.112;2023-03-21T23:07:17;10.18;;;4.47;;
18931;SDS011;9598;50.954;3.112;2023-03-21T23:12:19;6.90;;;3.70;;
18931;SDS011;9598;50.954;3.112;2023-03-21T23:17:21;9.38;;;4.80;;
18931;SDS011;9598;50.954;3.112;2023-03-21T23:22:27;9.68;;;4.60;;
18931;SDS011;9598;50.954;3.112;2023-03-21T23:27:30;9.95;;;5.03;;
18931;SDS011;9598;50.954;3.112;2023-03-21T23:32:34;11.63;;;4.72;;
18931;SDS011;9598;50.954;3.112;2023-03-21T23:37:37;12.15;;;5.00;;
18931;SDS011;9598;50.954;3.112;2023-03-21T23:42:41;9.95;;;4.82;;
18931;SDS011;9598;50.954;3.112;2023-03-21T23:47:43;12.30;;;5.43;;
18931;SDS011;9598;50.954;3.112;2023-03-21T23:52:46;9.05;;;5.25;;
18931;SDS011;9598;50.954;3.112;2023-03-21T23:57:49;10.02;;;5.95;;
